Time;durP1;ratioP1;P1;durP2;ratioP2;P2;SDS_P1;SDS_P2;PMS_P1;PMS_P2;Temp;Humidity;BMP_temperature;BMP_pressure;BME280_temperature;BME280_humidity;BME280_pressure;Samples;Min_cycle;Max_cycle;Signal;HPM_P1;HPM_P2
2023/07/15 05:02:24;;;;;;;3.88;2.47;;;21.40;85.40;;;;;;5473270;23;20353;-73
2023/07/15 05:04:49;;;;;;;4.68;2.40;;;21.50;85.20;;;;;;4928507;29;20028;-74
2023/07/15 05:07:15;;;;;;;4.50;2.75;;;21.50;85.50;;;;;;4911517;29;20052;-74
2023/07/15 05:09:42;;;;;;;5.63;2.22;;;21.50;85.50;;;;;;4911418;29;20040;-75
2023/07/15 05:12:10;;;;;;;4.45;2.80;;;21.60;85.50;;;;;;4928277;29;20051;-74
2023/07/15 05:14:36;;;;;;;4.30;2.42;;;21.60;85.20;;;;;;4928672;29;20479;-74
2023/07/15 05:17:05;;;;;;;3.40;2.30;;;21.70;85.10;;;;;;4928167;29;20194;-75
2023/07/15 05:19:30;;;;;;;4.03;2.70;;;21.80;84.80;;;;;;4914693;29;20048;-74
2023/07/15 05:21:56;;;;;;;5.68;2.50;;;21.80;84.50;;;;;;4907973;29;20088;-76
2023/07/15 05:24:22;;;;;;;4.28;2.40;;;21.90;84.10;;;;;;4909270;29;20040;-74
2023/07/15 05:26:48;;;;;;;6.65;2.45;;;22.00;84.00;;;;;;4908630;29;20024;-75
2023/07/15 05:29:13;;;;;;;5.20;2.30;;;22.10;84.00;;;;;;4909337;29;20053;-74
2023/07/15 05:31:39;;;;;;;4.53;2.70;;;22.20;83.80;;;;;;4908923;29;20352;-74
2023/07/15 05:34:05;;;;;;;3.95;2.30;;;22.20;83.50;;;;;;4909091;29;20103;-75
2023/07/15 05:36:30;;;;;;;4.85;2.22;;;22.30;83.50;;;;;;4920008;29;20024;-76
2023/07/15 05:38:56;;;;;;;9.25;2.55;;;22.40;83.40;;;;;;4927403;29;20101;-73
2023/07/15 05:41:22;;;;;;;5.85;2.20;;;22.40;83.20;;;;;;4927939;29;20040;-73
2023/07/15 05:43:48;;;;;;;4.85;2.63;;;22.50;83.20;;;;;;4927437;29;20028;-75
2023/07/15 05:46:13;;;;;;;3.75;2.40;;;22.60;83.00;;;;;;4911211;29;20326;-74
2023/07/15 05:48:39;;;;;;;4.95;2.30;;;22.70;83.20;;;;;;4927497;29;20032;-73
2023/07/15 05:51:05;;;;;;;3.25;2.00;;;22.80;82.50;;;;;;4927078;29;20028;-74
2023/07/15 05:53:31;;;;;;;4.60;2.05;;;22.80;82.20;;;;;;4928025;29;20117;-75
2023/07/15 05:55:57;;;;;;;5.90;2.50;;;23.00;81.90;;;;;;4927183;29;20034;-74
2023/07/15 05:58:23;;;;;;;4.53;2.20;;;23.00;81.40;;;;;;4926662;29;20262;-72
2023/07/15 06:00:51;;;;;;;5.78;2.30;;;23.20;81.00;;;;;;4925686;29;20095;-75
2023/07/15 06:03:17;;;;;;;5.68;2.25;;;23.30;80.10;;;;;;4908273;29;20066;-74
2023/07/15 06:05:43;;;;;;;4.20;2.10;;;23.50;79.20;;;;;;4905595;29;20318;-74
2023/07/15 06:08:09;;;;;;;3.95;2.33;;;23.70;78.90;;;;;;4900537;29;20104;-74
2023/07/15 06:10:35;;;;;;;4.85;2.20;;;23.80;78.70;;;;;;4908004;29;20047;-74
2023/07/15 06:13:01;;;;;;;4.07;2.15;;;23.90;78.20;;;;;;4901034;29;20036;-74
2023/07/15 06:15:27;;;;;;;5.18;2.35;;;24.00;77.90;;;;;;4908501;29;20249;-73
2023/07/15 06:17:54;;;;;;;6.20;2.40;;;24.10;77.50;;;;;;4907940;29;20040;-73
2023/07/15 06:20:20;;;;;;;3.60;2.30;;;24.10;77.30;;;;;;4901640;29;20041;-74
2023/07/15 06:22:46;;;;;;;3.80;2.50;;;24.20;77.10;;;;;;4907152;29;20028;-73
2023/07/15 06:25:12;;;;;;;5.30;2.38;;;24.30;76.90;;;;;;4922625;29;20036;-73
2023/07/15 06:27:38;;;;;;;4.93;2.50;;;24.40;76.60;;;;;;4908270;29;20024;-76
2023/07/15 06:30:06;;;;;;;3.33;2.17;;;24.40;76.10;;;;;;4922378;29;20055;-76
2023/07/15 06:32:32;;;;;;;4.40;2.40;;;24.60;76.20;;;;;;4922892;29;20207;-74
2023/07/15 06:34:57;;;;;;;3.67;2.13;;;24.70;75.80;;;;;;4907248;29;20035;-75
2023/07/15 06:37:23;;;;;;;9.23;6.95;;;24.80;75.30;;;;;;4907474;29;20300;-74
2023/07/15 06:39:55;;;;;;;6.13;2.97;;;24.90;75.00;;;;;;4907441;29;20033;-77
2023/07/15 06:42:21;;;;;;;4.80;2.78;;;25.10;75.00;;;;;;4907865;29;20072;-74
2023/07/15 06:44:46;;;;;;;4.07;2.20;;;25.30;74.80;;;;;;4907693;29;20037;-75
2023/07/15 06:47:12;;;;;;;6.82;2.78;;;25.40;74.20;;;;;;4907306;29;20063;-76
2023/07/15 06:49:38;;;;;;;6.32;2.75;;;25.50;73.30;;;;;;4908032;29;20047;-75
2023/07/15 06:52:04;;;;;;;12.48;9.60;;;25.70;73.40;;;;;;4907452;29;20247;-74
2023/07/15 06:54:31;;;;;;;5.78;2.67;;;25.80;72.70;;;;;;4907895;29;20028;-74
2023/07/15 06:56:57;;;;;;;6.40;3.77;;;26.00;72.30;;;;;;4907442;29;20361;-74
2023/07/15 06:59:23;;;;;;;6.65;2.80;;;26.20;72.00;;;;;;4890965;29;20499;-74
2023/07/15 07:01:49;;;;;;;3.65;2.30;;;26.30;71.50;;;;;;4906929;29;20330;-73
2023/07/15 07:04:14;;;;;;;7.57;4.68;;;26.50;70.80;;;;;;4907465;29;20115;-74
2023/07/15 07:06:40;;;;;;;7.43;3.53;;;26.60;70.70;;;;;;4912643;29;20295;-74
2023/07/15 07:09:06;;;;;;;18.88;15.02;;;26.90;70.50;;;;;;4910969;29;20069;-73
2023/07/15 07:11:32;;;;;;;3.42;2.33;;;27.10;70.30;;;;;;4910940;29;20063;-73
2023/07/15 07:13:58;;;;;;;2.80;1.80;;;27.40;69.00;;;;;;4908348;29;20028;-75
2023/07/15 07:16:23;;;;;;;4.97;2.38;;;27.60;67.50;;;;;;4907107;29;20032;-73
2023/07/15 07:18:49;;;;;;;8.18;6.53;;;27.90;67.40;;;;;;4907160;29;20055;-73
2023/07/15 07:21:15;;;;;;;7.18;3.30;;;28.10;67.30;;;;;;4907142;29;20226;-76
2023/07/15 07:23:40;;;;;;;7.43;3.45;;;28.20;68.50;;;;;;4907567;29;20029;-74
2023/07/15 07:26:09;;;;;;;3.85;2.50;;;28.30;68.00;;;;;;4907154;29;20095;-74
2023/07/15 07:28:42;;;;;;;5.40;1.92;;;28.30;67.50;;;;;;4906579;29;20076;-72
2023/07/15 07:31:09;;;;;;;4.88;1.83;;;28.40;67.00;;;;;;4906998;29;20017;-73
2023/07/15 07:33:35;;;;;;;3.30;1.92;;;28.50;66.70;;;;;;4907795;29;20118;-73
2023/07/15 07:36:04;;;;;;;5.35;2.08;;;28.50;66.60;;;;;;4874559;29;20048;-73
2023/07/15 07:38:30;;;;;;;3.33;2.00;;;28.50;66.80;;;;;;4907279;29;20024;-73
2023/07/15 07:41:04;;;;;;;8.52;3.25;;;28.60;66.30;;;;;;4906877;29;20029;-76
2023/07/15 07:43:30;;;;;;;6.68;2.30;;;28.70;66.90;;;;;;4907255;29;20032;-73
2023/07/15 07:45:55;;;;;;;2.90;1.60;;;28.80;66.90;;;;;;4907701;29;20341;-74
2023/07/15 07:48:21;;;;;;;4.07;1.65;;;28.90;65.20;;;;;;4907063;29;20036;-76
2023/07/15 07:50:47;;;;;;;3.95;1.73;;;29.10;65.50;;;;;;4907049;29;20338;-75
2023/07/15 07:53:13;;;;;;;3.95;1.60;;;29.20;63.40;;;;;;4906030;29;20048;-74
2023/07/15 07:55:39;;;;;;;9.35;6.10;;;29.40;62.20;;;;;;4906306;29;20340;-73
2023/07/15 07:58:07;;;;;;;4.13;2.10;;;29.60;63.20;;;;;;4905614;29;20044;-73
2023/07/15 08:00:37;;;;;;;3.58;1.75;;;29.80;61.60;;;;;;4893593;29;20116;-75
2023/07/15 08:03:03;;;;;;;4.45;1.70;;;29.90;60.50;;;;;;4910417;29;20040;-73
2023/07/15 08:05:28;;;;;;;4.28;1.75;;;30.10;60.70;;;;;;4910632;29;20061;-73
2023/07/15 08:07:54;;;;;;;3.55;1.70;;;30.30;60.40;;;;;;4910115;29;20037;-73
2023/07/15 08:10:20;;;;;;;3.22;1.98;;;30.50;59.80;;;;;;4910493;29;20047;-76
2023/07/15 08:12:45;;;;;;;5.40;2.30;;;30.70;58.60;;;;;;4910147;29;20160;-75
2023/07/15 08:15:11;;;;;;;3.88;1.80;;;30.90;58.60;;;;;;4910356;29;20385;-74
2023/07/15 08:17:37;;;;;;;3.15;1.60;;;31.30;58.50;;;;;;4910544;29;20037;-72
2023/07/15 08:20:03;;;;;;;2.70;1.80;;;31.80;57.50;;;;;;4910012;29;20073;-73
2023/07/15 08:22:29;;;;;;;3.13;1.50;;;32.10;56.20;;;;;;4910412;29;20024;-74
2023/07/15 08:24:55;;;;;;;3.08;1.60;;;32.10;55.90;;;;;;4910145;29;20025;-74
2023/07/15 08:27:21;;;;;;;4.22;1.70;;;31.90;56.20;;;;;;4909665;29;20096;-74
2023/07/15 08:29:47;;;;;;;3.25;2.00;;;32.10;55.60;;;;;;4909814;29;20044;-77
2023/07/15 08:32:13;;;;;;;3.30;1.60;;;32.10;55.70;;;;;;4910722;29;20088;-75
2023/07/15 08:34:39;;;;;;;2.88;1.33;;;32.20;56.10;;;;;;4893347;29;20033;-74
2023/07/15 08:37:05;;;;;;;2.50;1.60;;;32.20;54.80;;;;;;4909501;29;20042;-73
2023/07/15 08:39:31;;;;;;;3.75;1.80;;;32.20;55.40;;;;;;4910140;29;20103;-74
2023/07/15 08:41:59;;;;;;;2.67;1.52;;;32.30;55.20;;;;;;4909701;29;20302;-72
2023/07/15 08:44:25;;;;;;;6.32;1.70;;;32.50;55.40;;;;;;4909569;29;20345;-73
2023/07/15 08:46:53;;;;;;;3.20;1.50;;;32.80;54.90;;;;;;4908390;29;20028;-74
2023/07/15 08:49:21;;;;;;;3.40;1.33;;;33.10;54.00;;;;;;4910141;29;20042;-73
2023/07/15 08:51:47;;;;;;;2.88;1.45;;;33.00;54.20;;;;;;4909722;29;20357;-73
2023/07/15 08:54:14;;;;;;;2.97;1.42;;;33.10;54.30;;;;;;4909943;29;20073;-74
2023/07/15 08:56:40;;;;;;;2.63;1.40;;;33.00;53.60;;;;;;4910145;29;20029;-74
2023/07/15 08:59:06;;;;;;;2.45;1.45;;;33.10;53.90;;;;;;4909830;29;20160;-74
2023/07/15 09:01:35;;;;;;;2.67;1.33;;;32.90;53.80;;;;;;4909697;29;20020;-73
2023/07/15 09:04:01;;;;;;;3.63;1.60;;;33.00;54.40;;;;;;4909426;29;20051;-74
2023/07/15 09:06:27;;;;;;;3.30;1.35;;;33.10;53.80;;;;;;4908754;29;20096;-72
2023/07/15 09:08:54;;;;;;;2.80;1.80;;;33.30;53.90;;;;;;4909106;29;20064;-72
2023/07/15 09:11:20;;;;;;;3.50;1.60;;;33.30;53.20;;;;;;4909400;29;20266;-73
2023/07/15 09:13:46;;;;;;;2.92;1.50;;;33.10;53.30;;;;;;4909849;29;20048;-73
2023/07/15 09:16:13;;;;;;;3.15;1.67;;;33.00;53.30;;;;;;4909269;29;20032;-74
2023/07/15 09:18:40;;;;;;;2.20;1.42;;;33.10;53.70;;;;;;4909652;29;20036;-73
2023/07/15 09:21:11;;;;;;;3.20;1.33;;;33.20;53.10;;;;;;4908953;29;20036;-73
2023/07/15 09:23:42;;;;;;;4.60;1.35;;;33.30;51.40;;;;;;4909444;29;20427;-72
2023/07/15 09:26:09;;;;;;;3.08;1.60;;;33.30;51.60;;;;;;4910236;29;20361;-73
2023/07/15 09:28:55;;;;;;;4.60;1.53;;;33.40;51.70;;;;;;4909364;29;20067;-72
2023/07/15 09:31:27;;;;;;;3.80;1.40;;;33.30;51.60;;;;;;4908284;29;20475;-74
2023/07/15 09:34:03;;;;;;;2.60;1.50;;;33.10;51.80;;;;;;4923804;29;20039;-73
2023/07/15 09:36:32;;;;;;;4.05;1.73;;;33.10;52.20;;;;;;4909866;29;20036;-73
2023/07/15 09:39:22;;;;;;;5.55;3.83;;;33.20;52.80;;;;;;4913086;29;20097;-72
2023/07/15 09:42:04;;;;;;;3.42;2.15;;;33.40;52.40;;;;;;4895980;29;20029;-73
2023/07/15 09:44:38;;;;;;;2.97;1.52;;;33.70;52.30;;;;;;4910079;29;20044;-73
2023/07/15 09:47:04;;;;;;;2.45;1.50;;;34.10;51.60;;;;;;4910433;29;20096;-72
2023/07/15 09:49:31;;;;;;;2.97;1.38;;;34.50;51.40;;;;;;4908696;29;20032;-73
2023/07/15 09:51:58;;;;;;;3.80;1.73;;;34.90;50.20;;;;;;4908418;29;20047;-72
2023/07/15 09:54:25;;;;;;;3.63;1.30;;;35.10;50.30;;;;;;4907387;29;20226;-74
2023/07/15 09:56:58;;;;;;;2.53;1.63;;;35.30;49.70;;;;;;4907376;29;20227;-73
2023/07/15 09:59:28;;;;;;;3.45;1.48;;;35.30;49.70;;;;;;4908756;29;20112;-72
2023/07/15 10:01:59;;;;;;;3.17;1.40;;;35.20;49.70;;;;;;4906850;29;20040;-74
2023/07/15 10:04:34;;;;;;;3.63;1.20;;;35.30;49.70;;;;;;4908616;29;20338;-74
2023/07/15 10:07:02;;;;;;;2.70;1.58;;;35.30;49.60;;;;;;4907798;29;20273;-73
2023/07/15 10:09:32;;;;;;;2.75;1.23;;;35.10;49.60;;;;;;4894313;29;20048;-74
2023/07/15 10:11:59;;;;;;;3.80;1.83;;;35.20;50.00;;;;;;4863472;29;20334;-75
2023/07/15 10:14:27;;;;;;;3.00;1.40;;;35.40;49.90;;;;;;4906642;29;20032;-74
2023/07/15 10:17:10;;;;;;;2.95;1.70;;;35.40;49.50;;;;;;4890275;29;20032;-73
2023/07/15 10:20:03;;;;;;;5.30;1.48;;;35.40;49.50;;;;;;4890081;29;20044;-73
2023/07/15 10:22:34;;;;;;;4.72;1.42;;;35.40;49.60;;;;;;4905450;29;20417;-75
2023/07/15 10:25:03;;;;;;;4.70;1.58;;;35.50;49.50;;;;;;4905976;29;20044;-74
2023/07/15 10:27:30;;;;;;;2.50;1.30;;;35.40;49.30;;;;;;4890686;29;20033;-71
2023/07/15 10:30:19;;;;;;;3.50;1.30;;;35.50;49.50;;;;;;4905704;29;20456;-73
2023/07/15 10:33:08;;;;;;;3.00;1.30;;;35.90;49.40;;;;;;4906417;29;20361;-72
2023/07/15 10:35:40;;;;;;;2.78;1.55;;;36.10;49.00;;;;;;4890408;29;20037;-73
2023/07/15 10:38:28;;;;;;;2.03;1.50;;;36.20;48.60;;;;;;4905817;29;20037;-73
2023/07/15 10:41:05;;;;;;;2.00;1.40;;;36.00;48.90;;;;;;4900494;29;20111;-72
2023/07/15 10:43:41;;;;;;;4.00;1.27;;;36.30;48.00;;;;;;4907794;29;20025;-73
2023/07/15 10:46:19;;;;;;;2.92;1.50;;;36.10;48.30;;;;;;4907517;29;20199;-72
2023/07/15 10:48:45;;;;;;;2.55;1.40;;;36.20;48.50;;;;;;4907882;29;20035;-73
2023/07/15 10:51:15;;;;;;;4.10;1.60;;;36.00;48.30;;;;;;4907298;29;20366;-74
2023/07/15 10:53:41;;;;;;;2.63;1.23;;;36.00;48.20;;;;;;4889078;29;20037;-72
2023/07/15 10:56:09;;;;;;;2.85;1.50;;;36.10;48.10;;;;;;4888285;29;20041;-71
2023/07/15 10:58:36;;;;;;;1.98;1.40;;;36.10;48.00;;;;;;4888909;29;20033;-73
2023/07/15 11:01:04;;;;;;;2.40;1.25;;;36.00;48.00;;;;;;4906207;29;20075;-72
2023/07/15 11:03:38;;;;;;;2.85;1.60;;;36.20;48.20;;;;;;4907287;29;20051;-72
2023/07/15 11:06:04;;;;;;;4.32;1.40;;;36.50;47.80;;;;;;4907076;29;20036;-72
2023/07/15 11:08:31;;;;;;;2.72;1.40;;;36.70;47.50;;;;;;4898479;29;20241;-72
2023/07/15 11:11:02;;;;;;;5.97;3.88;;;37.10;47.70;;;;;;4907136;29;20037;-73
2023/07/15 11:13:28;;;;;;;3.58;1.50;;;37.50;47.30;;;;;;4907318;29;20119;-76
2023/07/15 11:15:55;;;;;;;3.33;1.10;;;37.60;46.50;;;;;;4906941;29;20071;-73
2023/07/15 11:18:25;;;;;;;2.60;1.83;;;38.20;46.70;;;;;;4907250;29;20102;-72
2023/07/15 11:20:56;;;;;;;4.43;1.30;;;38.50;46.50;;;;;;4906942;29;20226;-72
2023/07/15 11:23:22;;;;;;;3.08;1.30;;;38.70;46.30;;;;;;4906514;29;20032;-72
2023/07/15 11:25:48;;;;;;;3.53;1.38;;;39.00;45.30;;;;;;4906786;29;20358;-73
2023/07/15 11:28:16;;;;;;;3.17;1.40;;;39.20;45.10;;;;;;4906685;29;20047;-73
2023/07/15 11:30:46;;;;;;;2.60;1.13;;;39.00;45.30;;;;;;4907398;29;20111;-72
2023/07/15 11:33:12;;;;;;;2.22;1.33;;;39.00;44.90;;;;;;4907787;29;20095;-72
2023/07/15 11:35:39;;;;;;;2.30;1.20;;;38.60;45.40;;;;;;4911418;29;20028;-73
2023/07/15 11:38:11;;;;;;;3.30;1.60;;;38.70;45.60;;;;;;4910825;29;20047;-74
2023/07/15 11:41:01;;;;;;;3.08;1.42;;;39.00;45.00;;;;;;4911273;29;20103;-74
2023/07/15 11:43:30;;;;;;;2.25;1.00;;;38.70;44.80;;;;;;4911271;29;20251;-76
2023/07/15 11:45:57;;;;;;;2.92;1.70;;;38.90;45.70;;;;;;4893647;29;20044;-80
2023/07/15 11:48:28;;;;;;;3.60;1.50;;;39.90;45.40;;;;;;4911072;29;20303;-74
2023/07/15 11:51:07;;;;;;;2.20;1.33;;;40.30;46.20;;;;;;4910434;29;20242;-75
2023/07/15 11:53:34;;;;;;;4.53;1.70;;;40.30;46.00;;;;;;4910958;29;20041;-74
2023/07/15 11:56:01;;;;;;;3.05;1.50;;;40.80;46.00;;;;;;4910360;29;20043;-75
2023/07/15 11:58:36;;;;;;;4.43;1.67;;;40.70;45.80;;;;;;4910611;29;20055;-75
2023/07/15 12:01:02;;;;;;;3.17;1.50;;;41.30;45.00;;;;;;4910375;29;20025;-75
2023/07/15 12:03:28;;;;;;;2.42;1.38;;;42.40;44.30;;;;;;4909611;29;20088;-76
2023/07/15 12:05:54;;;;;;;8.27;1.55;;;43.00;43.80;;;;;;4910191;29;20024;-74
2023/07/15 12:08:19;;;;;;;2.03;1.10;;;43.00;43.20;;;;;;4907324;29;20033;-75
2023/07/15 12:10:50;;;;;;;2.72;1.30;;;42.90;43.40;;;;;;4908389;29;20077;-75
2023/07/15 12:13:16;;;;;;;3.17;1.60;;;42.40;43.50;;;;;;4894808;29;20307;-76
2023/07/15 12:15:42;;;;;;;3.47;1.50;;;41.70;44.30;;;;;;4922771;29;20029;-75
2023/07/15 12:18:08;;;;;;;3.85;1.70;;;41.10;45.20;;;;;;4911594;29;20044;-75
2023/07/15 12:20:33;;;;;;;2.35;1.35;;;41.00;45.20;;;;;;4910494;29;20035;-75
2023/07/15 12:22:59;;;;;;;5.20;1.52;;;42.10;44.80;;;;;;4910078;29;20035;-75
2023/07/15 12:25:25;;;;;;;2.33;1.30;;;43.10;43.90;;;;;;4910444;29;20044;-74
2023/07/15 12:27:51;;;;;;;2.30;1.40;;;44.00;43.30;;;;;;4910760;29;20084;-77
2023/07/15 12:30:17;;;;;;;2.38;1.40;;;45.10;42.20;;;;;;4924078;29;20288;-74
2023/07/15 12:32:43;;;;;;;2.70;1.30;;;45.80;41.60;;;;;;4910234;29;20199;-75
2023/07/15 12:35:08;;;;;;;1.80;1.30;;;46.30;41.40;;;;;;4908392;29;20033;-74
2023/07/15 12:37:35;;;;;;;3.10;1.43;;;47.00;41.00;;;;;;4909452;29;20063;-76
2023/07/15 12:40:03;;;;;;;2.72;1.35;;;47.70;40.50;;;;;;4909507;29;20044;-74
2023/07/15 12:42:30;;;;;;;2.92;1.38;;;48.20;39.50;;;;;;4909050;29;20046;-74
2023/07/15 12:44:56;;;;;;;2.38;1.40;;;48.90;40.00;;;;;;4908622;29;20036;-74
2023/07/15 12:47:21;;;;;;;5.27;1.37;;;49.00;39.90;;;;;;4910238;29;20033;-74
2023/07/15 12:49:47;;;;;;;4.00;1.30;;;49.50;39.90;;;;;;4909814;29;20302;-74
2023/07/15 12:52:13;;;;;;;2.23;1.50;;;49.80;39.40;;;;;;4909058;29;20274;-74
2023/07/15 12:54:38;;;;;;;4.03;1.60;;;49.90;39.70;;;;;;4910141;29;20032;-74
2023/07/15 12:57:04;;;;;;;5.27;1.50;;;50.70;39.50;;;;;;4909613;29;20076;-73
2023/07/15 12:59:30;;;;;;;2.40;1.23;;;50.10;39.30;;;;;;4909891;29;20040;-74
2023/07/15 13:01:56;;;;;;;3.67;1.30;;;50.70;38.50;;;;;;4907978;29;20072;-78
2023/07/15 13:04:21;;;;;;;4.30;1.25;;;50.40;38.20;;;;;;4909664;29;20048;-75
2023/07/15 13:06:47;;;;;;;2.30;1.27;;;50.30;38.20;;;;;;4909874;29;20341;-73
2023/07/15 13:09:13;;;;;;;4.17;2.10;;;50.40;37.50;;;;;;4899138;29;20449;-74
2023/07/15 13:11:38;;;;;;;3.88;1.42;;;51.60;37.70;;;;;;4889965;29;20904;-74
2023/07/15 13:14:04;;;;;;;3.78;1.40;;;52.00;37.20;;;;;;4891111;29;20041;-74
2023/07/15 13:16:30;;;;;;;3.95;1.50;;;52.70;37.50;;;;;;4909209;29;20199;-74
2023/07/15 13:18:57;;;;;;;3.17;1.50;;;52.90;37.40;;;;;;4908986;29;20079;-75
2023/07/15 13:21:23;;;;;;;3.53;1.40;;;53.00;36.70;;;;;;4909211;29;20036;-74
2023/07/15 13:23:49;;;;;;;;;;;53.60;37.50;;;;;;4910021;29;20037;-74
2023/07/15 13:26:15;;;;;;;2.25;1.45;;;53.50;36.10;;;;;;4908840;29;20116;-75
2023/07/15 13:28:40;;;;;;;;;;;53.00;36.10;;;;;;4910171;29;20099;-74
2023/07/15 13:31:06;;;;;;;2.38;1.45;;;52.90;36.20;;;;;;4909177;29;19907;-73
2023/07/15 13:33:35;;;;;;;1.95;1.10;;;52.80;36.70;;;;;;4908617;29;20029;-74
2023/07/15 13:36:00;;;;;;;2.38;1.27;;;52.10;35.80;;;;;;4907947;29;20040;-73
2023/07/15 13:38:29;;;;;;;2.10;1.35;;;50.70;36.10;;;;;;4924032;29;20187;-74
2023/07/15 13:40:55;;;;;;;3.70;1.20;;;49.60;36.70;;;;;;4908149;29;20040;-74
2023/07/15 13:43:21;;;;;;;3.10;1.40;;;49.80;36.90;;;;;;4907967;29;20039;-74
2023/07/15 13:45:47;;;;;;;3.63;1.70;;;48.70;38.60;;;;;;4909267;29;20053;-72
2023/07/15 13:48:13;;;;;;;2.25;1.55;;;47.70;39.60;;;;;;4908491;29;20081;-73
2023/07/15 13:50:39;;;;;;;3.23;1.50;;;47.60;39.90;;;;;;4909306;29;20095;-73
2023/07/15 13:53:04;;;;;;;1.95;1.38;;;47.70;40.10;;;;;;4907385;29;20033;-73
2023/07/15 13:55:30;;;;;;;3.53;1.47;;;48.00;39.80;;;;;;4908713;29;20052;-73
2023/07/15 13:57:56;;;;;;;2.33;1.70;;;46.90;40.00;;;;;;4908067;29;20075;-74
2023/07/15 14:00:21;;;;;;;2.75;1.60;;;45.60;40.80;;;;;;4908330;29;20323;-72
2023/07/15 14:02:47;;;;;;;4.07;2.13;;;44.50;41.80;;;;;;4908862;29;20048;-72
2023/07/15 14:05:13;;;;;;;2.70;1.50;;;43.60;42.40;;;;;;4908334;29;20319;-73
2023/07/15 14:07:39;;;;;;;3.38;1.80;;;45.50;41.50;;;;;;4908326;29;20148;-73
2023/07/15 14:10:05;;;;;;;4.50;1.98;;;46.90;40.30;;;;;;4908703;29;20044;-73
2023/07/15 14:12:31;;;;;;;2.85;1.80;;;46.80;40.30;;;;;;4908492;29;20262;-72
2023/07/15 14:14:57;;;;;;;4.85;1.80;;;45.40;41.00;;;;;;4908567;29;20044;-73
2023/07/15 14:17:22;;;;;;;2.85;1.63;;;44.10;41.90;;;;;;4908538;29;20205;-75
2023/07/15 14:19:48;;;;;;;5.43;1.95;;;45.00;42.00;;;;;;4909754;29;20050;-72
2023/07/15 14:22:14;;;;;;;4.30;1.70;;;45.70;41.20;;;;;;4909649;29;20096;-74
2023/07/15 14:24:39;;;;;;;3.45;1.85;;;46.80;40.80;;;;;;4908348;29;20230;-73
2023/07/15 14:27:05;;;;;;;6.57;1.73;;;47.90;40.50;;;;;;4907826;29;20028;-72
2023/07/15 14:29:32;;;;;;;3.03;1.58;;;48.20;39.40;;;;;;4907313;29;20373;-73
2023/07/15 14:31:57;;;;;;;2.80;1.67;;;46.70;40.20;;;;;;4922962;29;20036;-72
2023/07/15 14:34:23;;;;;;;3.63;1.80;;;45.60;40.90;;;;;;4906364;29;20032;-71
2023/07/15 14:36:49;;;;;;;2.53;1.58;;;44.60;41.60;;;;;;4908210;29;20375;-72
2023/07/15 14:39:14;;;;;;;3.10;1.80;;;43.60;42.60;;;;;;4911534;29;20044;-70
2023/07/15 14:41:42;;;;;;;3.25;2.25;;;42.60;43.10;;;;;;4915954;29;20048;-71
2023/07/15 14:44:08;;;;;;;5.28;1.80;;;41.10;44.50;;;;;;4912535;29;20052;-73
2023/07/15 14:46:34;;;;;;;6.72;2.38;;;39.70;46.00;;;;;;4909380;29;20028;-73
2023/07/15 14:49:00;;;;;;;5.70;1.98;;;38.70;46.90;;;;;;4907384;29;20064;-73
2023/07/15 14:51:26;;;;;;;4.38;2.17;;;37.80;47.90;;;;;;4906692;29;20036;-71
2023/07/15 14:53:52;;;;;;;3.88;2.17;;;37.40;48.50;;;;;;4907758;29;20024;-72
2023/07/15 14:56:18;;;;;;;5.28;2.10;;;36.80;49.20;;;;;;4907137;29;20080;-71
2023/07/15 14:58:43;;;;;;;5.60;2.20;;;35.90;50.40;;;;;;4907868;29;20117;-73
2023/07/15 15:01:09;;;;;;;3.50;2.50;;;35.40;51.30;;;;;;4907044;29;20103;-71
2023/07/15 15:03:35;;;;;;;6.03;2.45;;;34.90;52.20;;;;;;4907678;29;20079;-72
2023/07/15 15:06:01;;;;;;;5.82;2.58;;;34.20;53.20;;;;;;4907226;29;20029;-72
2023/07/15 15:08:27;;;;;;;7.25;2.25;;;33.90;53.80;;;;;;4907069;29;20369;-72
2023/07/15 15:10:56;;;;;;;6.05;2.70;;;33.60;54.10;;;;;;4907789;29;20024;-72
2023/07/15 15:13:22;;;;;;;6.53;2.72;;;33.20;54.40;;;;;;4907274;29;20033;-73
2023/07/15 15:15:49;;;;;;;4.13;2.40;;;32.80;55.00;;;;;;4907611;29;20039;-72
2023/07/15 15:18:14;;;;;;;4.80;2.28;;;32.40;55.80;;;;;;4906874;29;20037;-73
2023/07/15 15:20:40;;;;;;;8.43;3.30;;;32.00;56.40;;;;;;4907345;29;20267;-74
2023/07/15 15:23:06;;;;;;;6.75;2.50;;;31.70;57.20;;;;;;4906855;29;20095;-73
2023/07/15 15:25:31;;;;;;;6.43;2.90;;;31.60;57.90;;;;;;4907309;29;20032;-71
2023/07/15 15:27:57;;;;;;;6.88;2.70;;;31.40;58.90;;;;;;4906373;29;20040;-71
2023/07/15 15:30:23;;;;;;;7.72;2.90;;;31.40;59.60;;;;;;4907022;29;20032;-72
2023/07/15 15:32:49;;;;;;;5.57;2.83;;;31.20;60.20;;;;;;4907130;29;20338;-73
2023/07/15 15:35:14;;;;;;;7.35;2.75;;;31.00;60.70;;;;;;4907133;29;20032;-72
2023/07/15 15:37:40;;;;;;;7.05;2.97;;;30.90;61.70;;;;;;4907462;29;20040;-73
2023/07/15 15:40:06;;;;;;;5.38;3.08;;;30.90;62.00;;;;;;4906603;29;20252;-72
2023/07/15 15:42:32;;;;;;;6.88;2.55;;;30.80;62.80;;;;;;4907119;29;20041;-74
2023/07/15 15:44:59;;;;;;;4.75;2.83;;;30.70;63.40;;;;;;4907060;29;20029;-72
2023/07/15 15:47:25;;;;;;;8.15;3.33;;;30.50;63.70;;;;;;4906787;29;20342;-72
2023/07/15 15:49:51;;;;;;;4.82;2.75;;;30.40;64.00;;;;;;4907035;29;20096;-73
2023/07/15 15:52:17;;;;;;;6.47;2.65;;;30.30;64.40;;;;;;4906976;29;20039;-73
2023/07/15 15:54:42;;;;;;;5.35;2.70;;;30.50;64.20;;;;;;4907409;29;20252;-73
2023/07/15 15:57:08;;;;;;;7.13;2.72;;;30.80;63.40;;;;;;4906545;29;20036;-72
2023/07/15 15:59:34;;;;;;;6.53;2.78;;;31.20;62.60;;;;;;4906998;29;20032;-73
2023/07/15 16:02:00;;;;;;;6.03;2.78;;;31.60;61.60;;;;;;4907423;29;20041;-73
2023/07/15 16:04:25;;;;;;;6.22;2.88;;;31.80;61.10;;;;;;4906631;29;20048;-73
2023/07/15 16:06:51;;;;;;;6.35;2.65;;;31.90;61.00;;;;;;4906980;29;20040;-72
2023/07/15 16:09:17;;;;;;;6.93;2.97;;;32.00;60.40;;;;;;4906033;29;20327;-73
2023/07/15 16:11:42;;;;;;;3.58;2.58;;;32.40;60.70;;;;;;4907138;29;20068;-73
2023/07/15 16:14:08;;;;;;;6.50;2.58;;;32.80;59.90;;;;;;4906261;29;20063;-73
2023/07/15 16:16:34;;;;;;;8.27;3.15;;;33.60;59.00;;;;;;4907087;29;20338;-73
2023/07/15 16:19:01;;;;;;;7.30;2.78;;;33.90;58.40;;;;;;4921330;29;20053;-73
2023/07/15 16:21:27;;;;;;;5.30;2.60;;;34.80;57.10;;;;;;4909640;29;20092;-74
2023/07/15 16:23:52;;;;;;;5.88;2.70;;;36.80;54.40;;;;;;4910293;29;20036;-73
2023/07/15 16:26:18;;;;;;;6.22;3.35;;;37.20;53.80;;;;;;4910321;29;20041;-72
2023/07/15 16:28:44;;;;;;;5.13;2.72;;;37.50;52.80;;;;;;4910454;29;20204;-73
2023/07/15 16:31:09;;;;;;;6.53;2.75;;;37.30;52.80;;;;;;4910009;29;20036;-73
2023/07/15 16:33:35;;;;;;;6.60;3.25;;;36.50;53.50;;;;;;4910138;29;20345;-73
2023/07/15 16:36:01;;;;;;;4.05;2.38;;;36.00;54.60;;;;;;4908891;29;20092;-74
2023/07/15 16:38:26;;;;;;;5.63;3.10;;;35.30;55.80;;;;;;4909656;29;20366;-74
2023/07/15 16:40:52;;;;;;;6.30;3.15;;;34.20;57.60;;;;;;4909533;29;20041;-73
2023/07/15 16:43:18;;;;;;;7.70;3.30;;;33.90;58.40;;;;;;4909184;29;20052;-71
2023/07/15 16:45:43;;;;;;;8.07;3.00;;;33.60;59.10;;;;;;4910311;29;20036;-72
2023/07/15 16:48:09;;;;;;;7.38;2.95;;;33.90;59.00;;;;;;4909490;29;20029;-75
2023/07/15 16:50:35;;;;;;;6.50;3.00;;;34.10;58.60;;;;;;4909848;29;20068;-74
2023/07/15 16:53:00;;;;;;;7.95;3.10;;;33.80;59.20;;;;;;4910101;29;20366;-71
2023/07/15 16:55:26;;;;;;;7.28;3.28;;;33.60;59.70;;;;;;4909153;29;20059;-72
2023/07/15 16:57:52;;;;;;;12.48;3.83;;;33.30;60.30;;;;;;4910039;29;20336;-73
2023/07/15 17:00:17;;;;;;;5.90;3.13;;;33.10;61.00;;;;;;4909169;29;20033;-73
2023/07/15 17:02:43;;;;;;;5.55;3.00;;;32.90;61.80;;;;;;4909596;29;20041;-73
2023/07/15 17:05:09;;;;;;;7.70;3.13;;;32.80;62.10;;;;;;4909224;29;20032;-75
2023/07/15 17:07:35;;;;;;;7.65;3.10;;;32.80;62.30;;;;;;4909816;29;20363;-73
2023/07/15 17:10:00;;;;;;;5.20;3.33;;;32.90;62.30;;;;;;4909907;29;20028;-73
2023/07/15 17:12:26;;;;;;;6.82;3.22;;;33.10;62.10;;;;;;4909367;29;20055;-73
2023/07/15 17:14:52;;;;;;;6.63;3.13;;;33.20;62.00;;;;;;4909870;29;20029;-73
2023/07/15 17:17:17;;;;;;;8.10;2.88;;;34.50;60.40;;;;;;4908883;29;20303;-73
2023/07/15 17:19:43;;;;;;;8.13;3.30;;;35.30;58.30;;;;;;4909278;29;20037;-73
2023/07/15 17:22:09;;;;;;;5.78;3.47;;;35.20;58.50;;;;;;4909468;29;20036;-73
2023/07/15 17:24:35;;;;;;;4.00;2.80;;;35.60;58.40;;;;;;4909221;29;20036;-73
2023/07/15 17:27:00;;;;;;;7.63;3.13;;;36.10;57.50;;;;;;4909000;29;20060;-73
2023/07/15 17:29:26;;;;;;;6.95;3.58;;;36.30;57.00;;;;;;4908855;29;20040;-73
2023/07/15 17:31:52;;;;;;;7.70;3.42;;;36.10;57.50;;;;;;4909623;29;20191;-73
2023/07/15 17:34:17;;;;;;;6.65;3.28;;;35.60;58.00;;;;;;4908767;29;20056;-73
2023/07/15 17:36:43;;;;;;;8.30;3.03;;;36.10;57.40;;;;;;4909474;29;20255;-73
2023/07/15 17:39:09;;;;;;;7.28;3.70;;;36.70;56.90;;;;;;4909194;29;20112;-73
2023/07/15 17:41:34;;;;;;;7.68;3.08;;;36.70;56.30;;;;;;4923273;29;20095;-73
2023/07/15 17:44:00;;;;;;;6.47;3.25;;;36.40;56.80;;;;;;4909208;29;20096;-73
2023/07/15 17:46:26;;;;;;;6.80;3.55;;;36.00;57.60;;;;;;4908461;29;20035;-73
2023/07/15 17:48:51;;;;;;;6.30;3.65;;;35.30;58.80;;;;;;4908841;29;20040;-72